Time;durP1;ratioP1;P1;durP2;ratioP2;P2;SDS_P1;SDS_P2;PMS_P1;PMS_P2;Temp;Humidity;BMP_temperature;BMP_pressure;BME280_temperature;BME280_humidity;BME280_pressure;Samples;Min_cycle;Max_cycle;Signal;HPM_P1;HPM_P2
2021/08/27 00:01:02;;;;;;;14.57;13.67;;;14.70;99.90;;;;;;4955905;28;20455;-69
2021/08/27 00:03:29;;;;;;;13.17;12.57;;;14.90;99.90;;;;;;4955588;28;20480;-69
2021/08/27 00:05:56;;;;;;;14.70;13.90;;;14.90;99.90;;;;;;4955935;28;20475;-69
2021/08/27 00:08:23;;;;;;;14.20;13.40;;;14.90;99.90;;;;;;4956084;28;20448;-71
2021/08/27 00:10:51;;;;;;;14.47;13.53;;;14.80;99.90;;;;;;4955736;28;20946;-68
2021/08/27 00:13:17;;;;;;;13.80;13.00;;;14.80;99.90;;;;;;4955711;28;20460;-69
2021/08/27 00:15:44;;;;;;;15.03;14.13;;;14.90;99.90;;;;;;4955781;28;20810;-68
2021/08/27 00:18:11;;;;;;;14.93;14.03;;;14.90;99.90;;;;;;4955690;28;20456;-70
2021/08/27 00:20:38;;;;;;;15.63;14.63;;;14.80;99.90;;;;;;4955872;28;20455;-68
2021/08/27 00:23:05;;;;;;;14.70;13.90;;;14.90;99.90;;;;;;4955733;28;20551;-68
2021/08/27 00:25:32;;;;;;;14.20;13.50;;;14.90;99.90;;;;;;4955443;28;20499;-68
2021/08/27 00:28:00;;;;;;;16.03;14.67;;;14.90;99.90;;;;;;4955441;28;20547;-68
2021/08/27 00:30:27;;;;;;;14.73;13.83;;;15.10;99.90;;;;;;4955377;28;20823;-68
2021/08/27 00:32:54;;;;;;;16.10;14.90;;;15.10;99.90;;;;;;4955560;28;20456;-68
2021/08/27 00:35:20;;;;;;;14.53;13.40;;;15.20;99.90;;;;;;4955294;28;20988;-71
2021/08/27 00:37:47;;;;;;;14.13;13.33;;;15.20;99.90;;;;;;4955415;28;20464;-69
2021/08/27 00:40:14;;;;;;;14.47;13.67;;;15.20;99.90;;;;;;4955314;28;20467;-69
2021/08/27 00:42:41;;;;;;;15.30;14.30;;;15.20;99.90;;;;;;4955254;28;20860;-70
2021/08/27 00:45:10;;;;;;;14.37;13.57;;;15.30;99.90;;;;;;4955261;28;20488;-70
2021/08/27 00:47:37;;;;;;;15.07;14.07;;;15.40;99.90;;;;;;4955565;28;20464;-70
2021/08/27 00:50:05;;;;;;;15.13;14.23;;;15.40;99.90;;;;;;4955166;28;20464;-70
2021/08/27 00:52:32;;;;;;;14.10;13.30;;;15.40;99.90;;;;;;4955065;28;20512;-70
2021/08/27 00:54:59;;;;;;;16.47;15.30;;;15.40;99.90;;;;;;4954806;28;20507;-70
2021/08/27 00:57:25;;;;;;;15.63;14.57;;;15.40;99.90;;;;;;4955039;28;20452;-70
2021/08/27 00:59:52;;;;;;;16.60;15.33;;;15.50;99.90;;;;;;4954980;29;20448;-70
2021/08/27 01:02:20;;;;;;;15.50;14.53;;;15.40;99.90;;;;;;4954005;28;20515;-69
2021/08/27 01:04:50;;;;;;;14.97;13.80;;;15.50;99.90;;;;;;4954736;28;20484;-68
2021/08/27 01:07:21;;;;;;;14.97;14.03;;;15.40;99.90;;;;;;4954702;28;20455;-68
2021/08/27 01:09:55;;;;;;;13.63;12.93;;;15.40;99.90;;;;;;4954845;28;20452;-68
2021/08/27 01:12:28;;;;;;;14.33;13.30;;;15.50;99.90;;;;;;4954744;28;20860;-70
2021/08/27 01:15:00;;;;;;;15.50;14.50;;;15.50;99.90;;;;;;4954782;28;20452;-70
2021/08/27 01:17:35;;;;;;;15.67;14.70;;;15.60;99.90;;;;;;4954509;28;20460;-69
2021/08/27 01:20:31;;;;;;;15.70;14.87;;;15.70;99.90;;;;;;4954483;28;20444;-69
2021/08/27 01:23:16;;;;;;;15.13;14.23;;;15.60;99.90;;;;;;4900100;28;20507;-69
2021/08/27 01:25:49;;;;;;;15.10;13.90;;;15.70;99.90;;;;;;4954373;28;20492;-69
2021/08/27 01:28:17;;;;;;;15.50;14.70;;;15.70;99.90;;;;;;4954393;28;20488;-70
2021/08/27 01:30:49;;;;;;;16.27;14.73;;;15.60;99.90;;;;;;4954330;28;20548;-69
2021/08/27 01:33:20;;;;;;;15.30;14.27;;;15.50;99.90;;;;;;4954336;28;20456;-69
2021/08/27 01:35:52;;;;;;;14.90;14.07;;;15.50;99.90;;;;;;4954471;28;20452;-69
2021/08/27 01:38:21;;;;;;;14.80;14.00;;;15.50;99.90;;;;;;4954090;28;20797;-69
2021/08/27 01:40:50;;;;;;;14.93;14.13;;;15.50;99.90;;;;;;4954121;28;20457;-69
2021/08/27 01:43:18;;;;;;;14.40;13.60;;;15.40;99.90;;;;;;4954020;28;20959;-69
2021/08/27 01:45:47;;;;;;;13.80;13.10;;;15.40;99.90;;;;;;4953901;28;21149;-69
2021/08/27 01:48:15;;;;;;;15.73;14.60;;;15.40;99.90;;;;;;4954024;28;20967;-70
2021/08/27 01:50:43;;;;;;;15.33;14.47;;;15.40;99.90;;;;;;4954038;28;20460;-70
2021/08/27 01:53:11;;;;;;;15.53;14.43;;;15.40;99.90;;;;;;4954106;28;20464;-70
2021/08/27 01:55:39;;;;;;;15.87;14.67;;;15.30;99.90;;;;;;4953922;28;20452;-70
2021/08/27 01:58:07;;;;;;;16.33;15.13;;;15.20;99.90;;;;;;4953741;28;20465;-69
2021/08/27 02:00:35;;;;;;;14.70;13.90;;;15.20;99.90;;;;;;4953854;28;20464;-68
2021/08/27 02:03:03;;;;;;;15.90;14.60;;;15.30;99.90;;;;;;4953409;28;21046;-68
2021/08/27 02:05:30;;;;;;;14.83;13.93;;;15.30;99.90;;;;;;4953569;28;20658;-69
2021/08/27 02:07:59;;;;;;;16.50;15.30;;;15.30;99.90;;;;;;4953555;28;20515;-68
2021/08/27 02:10:27;;;;;;;15.97;15.07;;;15.40;99.90;;;;;;4953748;28;20474;-69
2021/08/27 02:12:54;;;;;;;16.20;15.13;;;15.40;99.90;;;;;;4953602;28;20451;-69
2021/08/27 02:15:22;;;;;;;16.23;15.33;;;15.40;99.90;;;;;;4952755;28;20464;-69
2021/08/27 02:17:49;;;;;;;15.83;14.97;;;15.40;99.90;;;;;;4953350;28;20464;-69
2021/08/27 02:20:17;;;;;;;15.00;14.10;;;15.40;99.90;;;;;;4953426;28;20539;-69
2021/08/27 02:22:50;;;;;;;17.10;15.70;;;15.50;99.90;;;;;;4953410;28;20456;-69
2021/08/27 02:25:21;;;;;;;16.97;16.00;;;15.50;99.90;;;;;;4953135;28;20591;-70
2021/08/27 02:27:50;;;;;;;15.37;14.50;;;15.40;99.90;;;;;;4953205;28;20463;-70
2021/08/27 02:30:17;;;;;;;15.97;14.97;;;15.40;99.90;;;;;;4952598;28;20468;-70
2021/08/27 02:32:46;;;;;;;16.77;15.67;;;15.40;99.90;;;;;;4952621;28;20970;-69
2021/08/27 02:35:14;;;;;;;15.77;14.97;;;15.50;99.90;;;;;;4962012;28;20467;-69
2021/08/27 02:37:42;;;;;;;15.33;14.47;;;15.60;99.90;;;;;;4956123;28;20461;-68
2021/08/27 02:40:10;;;;;;;14.60;13.77;;;15.70;99.90;;;;;;4953533;28;20453;-71
2021/08/27 02:42:37;;;;;;;15.47;14.40;;;15.60;99.90;;;;;;4953442;28;20456;-68
2021/08/27 02:45:08;;;;;;;15.67;14.80;;;15.50;99.90;;;;;;4953081;28;20487;-67
2021/08/27 02:47:35;;;;;;;16.43;15.50;;;15.60;99.90;;;;;;4953017;29;20452;-68
2021/08/27 02:50:02;;;;;;;16.10;14.83;;;15.60;99.90;;;;;;4953323;28;20452;-69
2021/08/27 02:52:33;;;;;;;15.27;14.17;;;15.60;99.90;;;;;;4953109;28;20452;-68
2021/08/27 02:55:07;;;;;;;15.70;14.70;;;15.60;99.90;;;;;;4953103;29;20456;-68
2021/08/27 02:57:41;;;;;;;16.57;15.40;;;15.60;99.90;;;;;;4953112;29;20480;-68
2021/08/27 03:00:10;;;;;;;14.97;14.17;;;15.50;99.90;;;;;;4953102;28;20464;-68
2021/08/27 03:02:39;;;;;;;15.40;14.50;;;15.50;99.90;;;;;;4952661;28;20971;-69
2021/08/27 03:05:10;;;;;;;15.77;14.87;;;15.50;99.90;;;;;;4952776;29;20505;-69
2021/08/27 03:07:42;;;;;;;17.67;14.90;;;15.50;99.90;;;;;;4952995;28;20943;-69
2021/08/27 03:10:13;;;;;;;15.03;14.33;;;15.50;99.90;;;;;;4953146;29;20452;-69
2021/08/27 03:12:49;;;;;;;15.80;14.57;;;15.50;99.90;;;;;;4952736;29;20456;-69
2021/08/27 03:15:23;;;;;;;16.37;15.27;;;15.60;99.90;;;;;;4952663;28;21202;-69
2021/08/27 03:17:53;;;;;;;16.50;15.40;;;15.50;99.90;;;;;;4952647;28;20459;-69
2021/08/27 03:20:24;;;;;;;16.70;15.70;;;15.40;99.90;;;;;;4952449;28;20456;-69
2021/08/27 03:22:57;;;;;;;15.43;14.53;;;15.30;99.90;;;;;;4952783;29;20440;-69
2021/08/27 03:25:25;;;;;;;15.60;14.80;;;15.30;99.90;;;;;;4952664;28;20531;-69
2021/08/27 03:27:59;;;;;;;16.17;15.00;;;15.20;99.90;;;;;;4952582;28;20460;-69
2021/08/27 03:30:29;;;;;;;15.70;14.80;;;15.30;99.90;;;;;;4952597;29;20460;-69
2021/08/27 03:33:00;;;;;;;17.17;16.17;;;15.40;99.90;;;;;;4952591;28;20488;-69
2021/08/27 03:35:27;;;;;;;16.67;15.13;;;15.40;99.90;;;;;;4952497;28;20448;-69
2021/08/27 03:37:56;;;;;;;17.07;16.07;;;15.40;99.90;;;;;;4952272;28;20515;-69
2021/08/27 03:40:25;;;;;;;17.33;16.30;;;15.40;99.90;;;;;;4952636;28;20457;-69
2021/08/27 03:42:52;;;;;;;18.13;16.93;;;15.40;99.90;;;;;;4952359;28;20945;-70
2021/08/27 03:45:22;;;;;;;18.37;17.00;;;15.40;99.90;;;;;;4952293;28;20489;-70
2021/08/27 03:47:51;;;;;;;18.87;17.67;;;15.30;99.90;;;;;;4952074;28;20543;-70
2021/08/27 03:50:18;;;;;;;16.93;16.00;;;15.40;99.90;;;;;;4952501;28;20872;-70
2021/08/27 03:52:46;;;;;;;17.60;16.40;;;15.40;99.90;;;;;;4952315;29;20468;-69
2021/08/27 03:55:16;;;;;;;17.27;16.27;;;15.40;99.90;;;;;;4952167;28;20444;-70
2021/08/27 03:57:47;;;;;;;19.03;17.67;;;15.40;99.90;;;;;;4952119;28;20463;-68
2021/08/27 04:00:16;;;;;;;20.03;18.53;;;15.50;99.90;;;;;;4952409;29;20464;-69
2021/08/27 04:02:42;;;;;;;18.33;16.80;;;15.50;99.90;;;;;;4952038;28;20492;-70
2021/08/27 04:05:13;;;;;;;18.90;17.40;;;15.50;99.90;;;;;;4952434;29;21002;-71
2021/08/27 04:07:40;;;;;;;17.90;16.60;;;15.50;99.90;;;;;;4952520;28;20487;-70
2021/08/27 04:10:08;;;;;;;17.93;16.83;;;15.50;99.90;;;;;;4952655;29;20441;-71
2021/08/27 04:12:36;;;;;;;19.07;17.67;;;15.50;99.90;;;;;;4952237;28;20483;-69
2021/08/27 04:15:03;;;;;;;20.27;18.40;;;15.60;99.90;;;;;;4952192;28;20467;-70
2021/08/27 04:17:30;;;;;;;20.83;19.33;;;15.50;99.90;;;;;;4951938;29;20503;-70
2021/08/27 04:19:57;;;;;;;19.30;17.70;;;15.50;99.90;;;;;;4952420;29;20453;-69
2021/08/27 04:22:25;;;;;;;18.77;17.47;;;15.50;99.90;;;;;;4952475;29;20468;-70
2021/08/27 04:24:52;;;;;;;20.50;19.00;;;15.40;99.90;;;;;;4952296;28;20453;-69
2021/08/27 04:27:19;;;;;;;21.43;19.53;;;15.40;99.90;;;;;;4951889;28;20463;-69
2021/08/27 04:29:45;;;;;;;19.17;18.00;;;15.50;99.90;;;;;;4952073;28;20455;-69
2021/08/27 04:32:12;;;;;;;20.10;18.43;;;15.40;99.90;;;;;;4952085;28;20569;-69
2021/08/27 04:34:39;;;;;;;19.17;17.70;;;15.50;99.90;;;;;;4952190;28;20452;-70
2021/08/27 04:37:06;;;;;;;19.90;18.10;;;15.50;99.90;;;;;;4952300;28;20453;-69
2021/08/27 04:39:34;;;;;;;18.00;16.60;;;15.40;99.90;;;;;;4955416;28;20459;-69
2021/08/27 04:42:02;;;;;;;17.80;16.50;;;15.50;99.90;;;;;;4955420;28;20453;-70
2021/08/27 04:44:29;;;;;;;21.87;20.20;;;15.40;99.90;;;;;;4955424;28;20500;-69
2021/08/27 04:46:56;;;;;;;19.10;17.60;;;15.40;99.90;;;;;;4955567;28;20501;-70
2021/08/27 04:49:24;;;;;;;17.97;16.53;;;15.40;99.90;;;;;;4955506;28;20448;-69
2021/08/27 04:51:51;;;;;;;18.10;16.70;;;15.40;99.90;;;;;;4955422;28;20511;-68
2021/08/27 04:54:18;;;;;;;16.67;15.77;;;15.20;99.90;;;;;;4955178;28;20461;-69
2021/08/27 04:56:46;;;;;;;17.73;16.60;;;15.20;99.90;;;;;;4955174;28;20850;-68
2021/08/27 04:59:13;;;;;;;19.13;17.50;;;15.10;99.90;;;;;;4955293;28;20452;-68
2021/08/27 05:01:39;;;;;;;17.23;16.13;;;15.10;99.90;;;;;;4954997;28;20806;-69
2021/08/27 05:04:06;;;;;;;19.50;18.13;;;15.20;99.90;;;;;;4955112;28;20480;-69
2021/08/27 05:06:33;;;;;;;19.10;17.60;;;15.10;99.90;;;;;;4955157;28;20853;-70
2021/08/27 05:09:00;;;;;;;18.70;17.30;;;15.10;99.90;;;;;;4955060;28;20664;-70
2021/08/27 05:11:26;;;;;;;19.07;17.57;;;15.10;99.90;;;;;;4954691;28;20512;-69
2021/08/27 05:13:54;;;;;;;18.00;16.90;;;15.00;99.90;;;;;;4955145;28;20459;-69
2021/08/27 05:16:21;;;;;;;20.00;18.20;;;15.10;99.90;;;;;;4955002;28;20857;-69
2021/08/27 05:18:48;;;;;;;19.07;17.63;;;15.10;99.90;;;;;;4954855;28;20523;-69
2021/08/27 05:21:16;;;;;;;18.57;17.33;;;15.20;99.90;;;;;;4954378;28;20457;-69
2021/08/27 05:23:42;;;;;;;17.73;16.60;;;15.20;99.90;;;;;;4954538;28;20460;-69
2021/08/27 05:26:09;;;;;;;19.33;18.03;;;15.30;99.90;;;;;;4954570;28;20495;-68
2021/08/27 05:28:36;;;;;;;19.30;17.97;;;15.40;99.90;;;;;;4954518;28;20452;-68
2021/08/27 05:31:04;;;;;;;19.57;18.30;;;15.40;99.90;;;;;;4954385;28;20453;-69
2021/08/27 05:33:31;;;;;;;19.27;17.23;;;15.40;99.90;;;;;;4954462;28;21030;-69
2021/08/27 05:35:58;;;;;;;21.20;19.60;;;15.40;99.90;;;;;;4954363;28;20467;-68
2021/08/27 05:38:24;;;;;;;21.40;19.57;;;15.40;99.90;;;;;;4954553;28;20453;-68
2021/08/27 05:40:51;;;;;;;22.77;21.07;;;15.50;99.90;;;;;;4954335;28;20463;-68
2021/08/27 05:43:18;;;;;;;21.20;19.60;;;15.60;99.90;;;;;;4954221;28;20856;-71
2021/08/27 05:45:44;;;;;;;21.07;19.77;;;15.70;99.90;;;;;;4954015;28;20489;-70
2021/08/27 05:48:12;;;;;;;22.43;20.70;;;15.70;99.90;;;;;;4954263;28;20460;-69
2021/08/27 05:50:39;;;;;;;23.00;21.50;;;15.80;99.90;;;;;;4954420;28;20452;-70
2021/08/27 05:53:06;;;;;;;22.03;19.90;;;15.80;99.90;;;;;;4954308;28;20812;-70
2021/08/27 05:55:33;;;;;;;22.93;21.23;;;15.90;99.90;;;;;;4954010;28;20461;-70
2021/08/27 05:58:00;;;;;;;23.70;21.63;;;15.80;99.90;;;;;;4953928;28;20888;-70
2021/08/27 06:00:27;;;;;;;22.87;21.17;;;15.90;99.90;;;;;;4953935;28;20452;-69
2021/08/27 06:02:54;;;;;;;21.60;20.10;;;15.80;99.90;;;;;;4953915;28;20562;-70
2021/08/27 06:05:22;;;;;;;22.13;20.63;;;15.90;99.90;;;;;;4953832;28;20452;-71
2021/08/27 06:07:49;;;;;;;21.33;19.83;;;16.00;99.90;;;;;;4953754;28;20477;-71
2021/08/27 06:10:15;;;;;;;22.70;21.13;;;16.00;99.90;;;;;;4953638;28;20464;-70
2021/08/27 06:12:43;;;;;;;20.17;18.67;;;16.10;99.90;;;;;;4953947;28;20523;-70
2021/08/27 06:15:13;;;;;;;20.33;19.07;;;16.30;99.90;;;;;;4953695;28;20476;-70
2021/08/27 06:17:40;;;;;;;20.57;19.00;;;16.60;99.90;;;;;;4953669;28;20441;-71
2021/08/27 06:20:09;;;;;;;18.13;16.90;;;16.70;99.90;;;;;;4953735;28;20475;-71
2021/08/27 06:22:37;;;;;;;18.57;17.47;;;16.50;99.90;;;;;;4953573;28;20448;-71
2021/08/27 06:25:04;;;;;;;18.30;17.10;;;16.90;99.90;;;;;;4953588;28;20452;-71
2021/08/27 06:27:31;;;;;;;17.63;16.53;;;17.50;99.90;;;;;;4953274;28;20547;-72
2021/08/27 06:29:58;;;;;;;17.77;16.77;;;17.80;99.90;;;;;;4953412;28;20492;-71
2021/08/27 06:32:26;;;;;;;18.23;16.77;;;17.90;99.90;;;;;;4953248;28;20484;-71
2021/08/27 06:34:54;;;;;;;18.60;17.40;;;17.60;99.90;;;;;;4953240;28;20480;-72
2021/08/27 06:37:21;;;;;;;19.30;18.20;;;17.40;99.90;;;;;;4953053;28;20461;-71
2021/08/27 06:39:49;;;;;;;19.73;18.37;;;17.30;99.90;;;;;;4953009;28;20520;-71
2021/08/27 06:42:15;;;;;;;17.20;16.07;;;17.60;99.90;;;;;;4953005;28;20451;-70
2021/08/27 06:44:42;;;;;;;16.57;15.43;;;18.30;99.90;;;;;;4952982;28;20585;-71
2021/08/27 06:47:09;;;;;;;16.60;15.80;;;19.10;99.90;;;;;;4953311;28;20558;-71
2021/08/27 06:49:35;;;;;;;16.37;15.37;;;19.60;99.90;;;;;;4953051;28;20467;-73
2021/08/27 06:52:02;;;;;;;15.37;14.67;;;20.10;99.90;;;;;;4952974;28;20516;-72
2021/08/27 06:54:29;;;;;;;16.70;15.37;;;20.30;99.90;;;;;;4952985;28;20477;-70
2021/08/27 06:56:57;;;;;;;17.07;15.97;;;19.90;99.90;;;;;;4953106;28;20478;-69
2021/08/27 06:59:24;;;;;;;15.13;14.13;;;19.30;99.90;;;;;;4953190;28;20951;-72
2021/08/27 07:01:50;;;;;;;15.57;14.67;;;18.90;99.90;;;;;;4958652;28;20492;-72
2021/08/27 07:04:17;;;;;;;15.83;14.93;;;18.80;99.90;;;;;;4972469;28;20486;-71
2021/08/27 07:06:44;;;;;;;16.10;14.73;;;18.70;99.90;;;;;;4972491;28;20491;-72
2021/08/27 07:09:10;;;;;;;14.73;13.97;;;18.70;99.90;;;;;;4972084;28;20451;-72
2021/08/27 07:11:37;;;;;;;13.93;13.33;;;18.90;99.90;;;;;;4972190;28;20443;-73
2021/08/27 07:14:06;;;;;;;14.57;13.87;;;18.60;99.90;;;;;;4972207;28;20455;-72
2021/08/27 07:16:33;;;;;;;14.73;14.00;;;18.50;99.90;;;;;;4971853;28;20530;-72
2021/08/27 07:19:00;;;;;;;15.43;14.53;;;18.30;99.90;;;;;;4971761;28;20463;-72
2021/08/27 07:21:26;;;;;;;14.50;13.60;;;18.60;99.90;;;;;;4971868;28;20544;-72
2021/08/27 07:23:53;;;;;;;14.77;13.93;;;18.60;99.90;;;;;;4972040;28;20464;-72
2021/08/27 07:26:20;;;;;;;14.23;13.50;;;18.70;99.90;;;;;;4971479;28;20487;-73
2021/08/27 07:28:46;;;;;;;14.50;13.70;;;18.50;99.90;;;;;;4971738;28;20452;-73
2021/08/27 07:31:14;;;;;;;14.30;13.30;;;18.40;99.90;;;;;;4971614;28;20456;-72
2021/08/27 07:33:41;;;;;;;12.70;11.77;;;18.60;99.90;;;;;;4971665;28;20479;-72
2021/08/27 07:36:08;;;;;;;14.10;13.40;;;18.70;99.90;;;;;;4971704;28;20467;-72
2021/08/27 07:38:34;;;;;;;13.93;13.13;;;18.50;99.90;;;;;;4971385;28;20960;-72
2021/08/27 07:41:01;;;;;;;12.63;12.03;;;18.50;99.90;;;;;;4971465;28;21012;-73
2021/08/27 07:43:28;;;;;;;13.47;12.77;;;19.10;99.90;;;;;;4971503;28;20527;-73
2021/08/27 07:45:57;;;;;;;14.43;13.60;;;20.10;99.90;;;;;;4971509;28;20502;-73
2021/08/27 07:48:26;;;;;;;13.90;13.00;;;20.60;99.90;;;;;;4971543;28;20455;-73
2021/08/27 07:50:52;;;;;;;13.63;12.83;;;20.30;99.90;;;;;;4971456;28;20459;-72
2021/08/27 07:53:19;;;;;;;13.20;12.40;;;20.10;99.90;;;;;;4971430;28;20451;-72
2021/08/27 07:55:47;;;;;;;12.77;12.23;;;19.70;99.90;;;;;;4971185;28;20459;-72
2021/08/27 07:58:13;;;;;;;12.40;11.80;;;19.60;99.90;;;;;;4971284;28;20451;-73
2021/08/27 08:00:40;;;;;;;12.70;12.10;;;20.20;99.90;;;;;;4971505;28;20456;-74
2021/08/27 08:03:07;;;;;;;13.30;12.33;;;21.50;98.90;;;;;;4971245;28;20538;-74
2021/08/27 08:05:35;;;;;;;13.93;13.17;;;22.60;96.70;;;;;;4971307;28;20466;-73
2021/08/27 08:08:02;;;;;;;13.47;12.77;;;23.00;95.80;;;;;;4971203;28;20487;-73
2021/08/27 08:10:29;;;;;;;12.40;11.60;;;22.50;95.30;;;;;;4971145;28;21025;-73
2021/08/27 08:12:55;;;;;;;12.67;11.70;;;21.90;95.60;;;;;;4972660;28;20458;-73
2021/08/27 08:15:26;;;;;;;13.17;12.47;;;21.80;95.60;;;;;;4975328;28;20458;-74
2021/08/27 08:17:53;;;;;;;12.40;11.80;;;22.70;94.90;;;;;;4975345;28;20517;-75
2021/08/27 08:20:20;;;;;;;11.63;11.03;;;23.50;93.30;;;;;;4975126;28;20913;-75
2021/08/27 08:22:48;;;;;;;13.23;12.30;;;23.50;92.80;;;;;;4974891;28;20534;-75
2021/08/27 08:25:15;;;;;;;13.07;12.17;;;24.50;92.10;;;;;;4974926;28;20459;-74
2021/08/27 08:27:41;;;;;;;12.50;12.03;;;24.70;91.20;;;;;;4975008;28;20487;-74
2021/08/27 08:30:09;;;;;;;13.20;12.70;;;23.90;91.90;;;;;;4974998;28;20462;-74
2021/08/27 08:32:35;;;;;;;12.40;11.90;;;23.00;93.20;;;;;;4974904;28;20847;-75
2021/08/27 08:35:03;;;;;;;12.80;12.17;;;23.10;93.60;;;;;;4974657;28;20456;-74
2021/08/27 08:37:30;;;;;;;13.23;12.53;;;22.30;94.30;;;;;;4974775;28;20452;-74
2021/08/27 08:39:58;;;;;;;12.97;12.40;;;21.90;94.30;;;;;;4974610;28;20455;-74
2021/08/27 08:42:25;;;;;;;12.20;11.70;;;21.70;94.30;;;;;;4974776;28;20791;-74
2021/08/27 08:44:52;;;;;;;13.20;12.70;;;22.70;93.90;;;;;;4974779;28;20456;-74
2021/08/27 08:47:21;;;;;;;13.73;13.10;;;23.70;92.10;;;;;;4974517;28;20542;-74
2021/08/27 08:49:49;;;;;;;13.40;12.60;;;23.60;91.00;;;;;;4974511;28;20459;-74
2021/08/27 08:52:19;;;;;;;13.37;12.67;;;24.00;90.80;;;;;;4974417;28;20448;-73
2021/08/27 08:54:49;;;;;;;12.70;12.10;;;24.20;90.50;;;;;;4974037;28;20464;-72
2021/08/27 08:57:20;;;;;;;13.97;13.27;;;25.20;89.00;;;;;;4974516;28;20454;-72
2021/08/27 08:59:47;;;;;;;12.60;12.17;;;26.40;87.70;;;;;;4974619;28;20517;-73
2021/08/27 09:02:13;;;;;;;13.47;12.87;;;26.80;83.90;;;;;;4974442;28;20957;-73
2021/08/27 09:04:40;;;;;;;13.60;13.00;;;26.10;83.10;;;;;;4974389;28;20483;-73
2021/08/27 09:07:07;;;;;;;13.63;13.03;;;24.80;85.80;;;;;;4974725;28;20499;-74
2021/08/27 09:09:36;;;;;;;13.17;12.50;;;23.70;89.10;;;;;;4974338;28;20455;-73
2021/08/27 09:12:19;;;;;;;14.07;13.40;;;23.40;90.60;;;;;;4974358;28;20569;-73
2021/08/27 09:14:57;;;;;;;14.23;13.50;;;24.00;89.80;;;;;;4974144;28;20461;-73
2021/08/27 09:17:32;;;;;;;13.67;13.07;;;23.40;90.20;;;;;;4974202;28;20910;-74
2021/08/27 09:19:59;;;;;;;14.80;14.13;;;23.70;91.10;;;;;;4974060;28;20456;-73
2021/08/27 09:22:25;;;;;;;12.60;11.70;;;23.30;90.00;;;;;;4974235;28;20463;-72
2021/08/27 09:25:06;;;;;;;15.07;14.03;;;22.40;91.10;;;;;;4973871;28;20447;-73
2021/08/27 09:27:37;;;;;;;12.77;12.17;;;21.90;92.20;;;;;;4974078;28;20502;-73
2021/08/27 09:30:10;;;;;;;12.93;12.33;;;21.70;92.30;;;;;;4974119;28;20562;-73
2021/08/27 09:32:37;;;;;;;12.50;11.80;;;21.60;92.70;;;;;;4974196;28;20474;-73
2021/08/27 09:35:10;;;;;;;12.13;11.43;;;21.70;93.50;;;;;;4974206;28;20482;-73
2021/08/27 09:37:42;;;;;;;13.30;12.60;;;21.40;93.20;;;;;;4974196;28;20550;-73
2021/08/27 09:40:12;;;;;;;15.33;14.20;;;21.30;93.40;;;;;;4974115;28;20448;-72
2021/08/27 09:42:41;;;;;;;12.23;11.73;;;21.70;93.80;;;;;;4974298;28;20478;-73
2021/08/27 09:45:10;;;;;;;12.70;12.20;;;23.00;91.80;;;;;;4974027;28;20462;-73
2021/08/27 09:47:37;;;;;;;12.03;11.53;;;24.60;89.20;;;;;;4973974;28;20490;-73
2021/08/27 09:50:20;;;;;;;12.73;12.13;;;24.50;83.90;;;;;;4974128;28;20854;-74
2021/08/27 09:52:52;;;;;;;12.97;12.37;;;24.20;85.70;;;;;;4973743;28;20456;-74
2021/08/27 09:55:19;;;;;;;13.60;12.70;;;24.70;82.30;;;;;;4973680;28;20456;-72
2021/08/27 09:57:47;;;;;;;12.30;11.80;;;24.60;83.10;;;;;;4973549;28;20514;-73
2021/08/27 10:00:19;;;;;;;13.30;12.33;;;24.80;85.20;;;;;;4973372;28;20460;-72
2021/08/27 10:02:47;;;;;;;12.90;12.00;;;24.30;86.20;;;;;;4973130;28;20561;-73
2021/08/27 10:05:14;;;;;;;14.03;13.43;;;23.80;88.40;;;;;;4973379;28;20540;-73
2021/08/27 10:07:41;;;;;;;13.27;12.67;;;23.00;88.80;;;;;;4973155;28;20495;-72
2021/08/27 10:10:10;;;;;;;12.70;12.20;;;22.40;89.40;;;;;;4973471;28;20452;-72
2021/08/27 10:12:38;;;;;;;11.60;11.10;;;22.00;90.50;;;;;;4973349;28;20479;-73
2021/08/27 10:15:08;;;;;;;11.77;11.20;;;22.10;90.90;;;;;;4973260;28;20823;-73
2021/08/27 10:17:35;;;;;;;13.03;12.23;;;22.40;90.40;;;;;;4973050;28;20454;-73
2021/08/27 10:20:04;;;;;;;11.93;11.50;;;22.60;90.00;;;;;;4972997;28;20467;-73
2021/08/27 10:22:30;;;;;;;12.77;12.17;;;23.10;90.20;;;;;;4973009;28;21251;-73
2021/08/27 10:24:57;;;;;;;13.93;13.20;;;23.30;87.80;;;;;;4973009;28;20452;-72
2021/08/27 10:27:25;;;;;;;13.23;12.50;;;23.10;89.60;;;;;;4973055;28;20492;-72
2021/08/27 10:29:53;;;;;;;12.33;11.83;;;22.70;89.20;;;;;;4973149;28;20456;-72
2021/08/27 10:32:49;;;;;;;12.90;12.30;;;22.10;89.30;;;;;;4972981;28;20456;-72
2021/08/27 10:35:52;;;;;;;12.70;12.20;;;21.50;90.00;;;;;;4962822;28;20966;-72
2021/08/27 10:38:41;;;;;;;12.60;12.10;;;21.60;90.60;;;;;;4932041;29;20612;-73
2021/08/27 10:41:13;;;;;;;12.50;11.80;;;23.30;87.20;;;;;;4971003;28;20468;-72
2021/08/27 10:43:57;;;;;;;13.70;13.10;;;24.90;84.00;;;;;;4972577;28;20558;-73
2021/08/27 10:46:25;;;;;;;13.80;13.00;;;27.80;75.10;;;;;;4971939;28;20479;-74
2021/08/27 10:48:55;;;;;;;14.40;13.60;;;28.90;70.20;;;;;;4970648;28;20491;-74
2021/08/27 10:51:33;;;;;;;13.70;13.10;;;28.10;68.00;;;;;;4973024;28;20459;-73
2021/08/27 10:54:00;;;;;;;12.57;11.90;;;27.50;68.80;;;;;;4972651;28;20455;-73
2021/08/27 10:56:50;;;;;;;12.30;11.70;;;26.30;71.30;;;;;;4972702;28;20463;-72
2021/08/27 10:59:18;;;;;;;13.70;13.10;;;25.00;77.30;;;;;;4972571;28;20510;-73
2021/08/27 11:01:46;;;;;;;13.10;12.50;;;23.20;83.80;;;;;;4972514;28;20840;-73
2021/08/27 11:04:22;;;;;;;13.13;12.30;;;22.40;88.80;;;;;;4971847;28;20905;-72
2021/08/27 11:06:51;;;;;;;12.83;12.13;;;21.70;90.30;;;;;;4971808;28;20464;-73
2021/08/27 11:09:21;;;;;;;11.30;10.90;;;21.10;90.90;;;;;;4971536;28;20860;-72
2021/08/27 11:11:48;;;;;;;12.60;11.80;;;20.70;90.50;;;;;;4971797;28;20444;-72
2021/08/27 11:14:20;;;;;;;13.20;12.33;;;20.50;90.70;;;;;;4971714;28;20459;-72
2021/08/27 11:16:57;;;;;;;12.53;11.77;;;20.70;90.90;;;;;;4971801;28;20462;-72
2021/08/27 11:19:30;;;;;;;13.17;12.40;;;20.60;91.30;;;;;;4971856;28;20462;-72
2021/08/27 11:22:18;;;;;;;12.07;10.90;;;20.60;92.50;;;;;;4971723;28;20448;-73
2021/08/27 11:25:17;;;;;;;13.87;13.17;;;20.20;94.70;;;;;;4971279;28;20565;-73
2021/08/27 11:28:10;;;;;;;13.93;13.10;;;19.90;95.70;;;;;;4971312;28;20494;-72
2021/08/27 11:30:38;;;;;;;13.23;12.53;;;19.80;96.60;;;;;;4971565;28;20482;-72
2021/08/27 11:33:05;;;;;;;12.60;11.90;;;19.70;96.40;;;;;;4971642;28;20460;-72
2021/08/27 11:35:45;;;;;;;12.63;11.80;;;19.80;95.80;;;;;;4969561;28;20571;-71
2021/08/27 11:38:12;;;;;;;13.77;12.93;;;20.00;95.60;;;;;;4968507;28;20502;-71
2021/08/27 11:40:41;;;;;;;13.30;12.67;;;20.20;94.50;;;;;;4971521;28;20451;-72
2021/08/27 11:43:08;;;;;;;13.60;13.00;;;20.50;94.20;;;;;;4971826;28;20452;-73
2021/08/27 11:45:34;;;;;;;13.77;12.87;;;20.70;94.20;;;;;;4971414;28;20448;-72
2021/08/27 11:48:07;;;;;;;12.27;11.60;;;21.00;94.00;;;;;;4971294;28;20483;-72
2021/08/27 11:50:38;;;;;;;12.70;12.10;;;21.30;93.40;;;;;;4971447;28;20452;-72
2021/08/27 11:53:06;;;;;;;12.90;12.00;;;21.60;92.70;;;;;;4971454;28;20817;-72
2021/08/27 11:55:41;;;;;;;12.27;11.57;;;22.30;92.20;;;;;;4971660;28;20470;-72
2021/08/27 11:58:07;;;;;;;13.00;12.30;;;22.70;91.10;;;;;;4971699;28;20455;-73
2021/08/27 12:00:36;;;;;;;12.93;12.23;;;22.80;90.70;;;;;;4971478;28;20456;-71
2021/08/27 12:03:03;;;;;;;13.27;12.53;;;22.60;90.80;;;;;;4934157;28;1075310;-71
2021/08/27 12:05:31;;;;;;;13.50;12.70;;;22.10;90.80;;;;;;4971828;28;20208;-71
2021/08/27 12:08:00;;;;;;;13.47;12.47;;;22.20;91.30;;;;;;4971740;28;21025;-71
2021/08/27 12:10:29;;;;;;;12.77;12.07;;;21.10;92.60;;;;;;4971747;28;20498;-72
2021/08/27 12:12:56;;;;;;;11.63;11.07;;;20.30;94.20;;;;;;4971944;28;20447;-74
2021/08/27 12:15:24;;;;;;;12.40;11.70;;;19.80;94.40;;;;;;4972101;28;20468;-72
2021/08/27 12:17:53;;;;;;;11.40;10.57;;;19.60;95.70;;;;;;4972140;28;20514;-72
2021/08/27 12:20:21;;;;;;;12.47;11.47;;;19.50;95.30;;;;;;4972084;28;20454;-73
2021/08/27 12:22:49;;;;;;;13.13;12.23;;;19.70;95.50;;;;;;4971825;28;20464;-73
2021/08/27 12:25:24;;;;;;;11.90;11.30;;;19.80;94.90;;;;;;4971960;28;20463;-72
2021/08/27 12:27:52;;;;;;;12.57;11.53;;;20.10;94.30;;;;;;4971860;28;20491;-73
2021/08/27 12:30:19;;;;;;;12.17;11.57;;;20.40;94.10;;;;;;4971947;28;20478;-72
2021/08/27 12:32:47;;;;;;;12.37;11.77;;;22.20;92.10;;;;;;4971878;28;20458;-73
2021/08/27 12:35:17;;;;;;;12.87;12.10;;;23.50;90.00;;;;;;4971772;28;20457;-72